Time;durP1;ratioP1;P1;durP2;ratioP2;P2;SDS_P1;SDS_P2;PMS_P1;PMS_P2;Temp;Humidity;BMP_temperature;BMP_pressure;BME280_temperature;BME280_humidity;BME280_pressure;Samples;Min_cycle;Max_cycle;Signal;HPM_P1;HPM_P2
2021/06/19 00:00:11;;;;;;;8.85;8.02;;;24.10;62.40;;;;;;2105706;28;20600;-68
2021/06/19 00:01:11;;;;;;;8.82;8.00;;;24.10;62.40;;;;;;2105648;28;20024;-69
2021/06/19 00:02:12;;;;;;;8.40;7.60;;;24.10;62.50;;;;;;2105890;28;20367;-69
2021/06/19 00:03:13;;;;;;;8.45;7.70;;;24.00;62.60;;;;;;2105364;28;20031;-68
2021/06/19 00:04:13;;;;;;;8.90;8.10;;;24.00;62.80;;;;;;2105468;28;20043;-68
2021/06/19 00:05:14;;;;;;;8.90;8.10;;;24.00;63.00;;;;;;2105962;28;20036;-69
2021/06/19 00:06:15;;;;;;;8.80;8.00;;;24.00;63.00;;;;;;2106137;28;20398;-69
2021/06/19 00:07:15;;;;;;;9.15;8.32;;;24.00;62.90;;;;;;2105397;28;20020;-68
2021/06/19 00:08:16;;;;;;;9.07;8.18;;;23.90;62.90;;;;;;2104954;28;20107;-68
2021/06/19 00:09:17;;;;;;;9.05;8.25;;;24.00;63.20;;;;;;2105627;28;20439;-69
2021/06/19 00:10:18;;;;;;;9.45;8.55;;;23.90;63.20;;;;;;2105230;28;20020;-68
2021/06/19 00:11:19;;;;;;;9.27;8.27;;;23.90;63.40;;;;;;2105976;28;20463;-69
2021/06/19 00:12:19;;;;;;;9.02;8.23;;;23.90;63.40;;;;;;2105944;28;20069;-68
2021/06/19 00:13:20;;;;;;;9.55;8.52;;;23.90;63.50;;;;;;2105768;28;20031;-68
2021/06/19 00:14:21;;;;;;;9.00;8.10;;;23.90;63.40;;;;;;2106024;28;20035;-68
2021/06/19 00:15:24;;;;;;;10.07;8.07;;;23.90;64.20;;;;;;2105840;28;20020;-69
2021/06/19 00:16:24;;;;;;;8.93;8.13;;;23.90;63.40;;;;;;2105803;28;20034;-69
2021/06/19 00:17:25;;;;;;;9.52;8.63;;;23.90;63.40;;;;;;2106012;28;20031;-69
2021/06/19 00:18:26;;;;;;;8.95;8.13;;;23.90;63.50;;;;;;2105551;28;20162;-69
2021/06/19 00:19:26;;;;;;;9.02;8.20;;;23.80;63.50;;;;;;2105516;28;20023;-69
2021/06/19 00:20:28;;;;;;;9.63;8.65;;;23.80;63.70;;;;;;2105257;28;20024;-69
2021/06/19 00:21:28;;;;;;;9.30;8.40;;;23.80;63.70;;;;;;2105023;28;20048;-68
2021/06/19 00:22:29;;;;;;;9.32;8.43;;;23.80;63.70;;;;;;2105047;28;20039;-69
2021/06/19 00:23:30;;;;;;;9.55;8.15;;;23.80;63.90;;;;;;2104871;28;20404;-69
2021/06/19 00:24:38;;;;;;;9.48;8.55;;;23.70;63.90;;;;;;2104472;28;20394;-69
2021/06/19 00:25:39;;;;;;;10.10;8.25;;;23.70;63.80;;;;;;2105260;28;20522;-69
2021/06/19 00:26:39;;;;;;;9.20;8.30;;;23.80;63.90;;;;;;2105012;28;20024;-69
2021/06/19 00:27:40;;;;;;;9.15;8.20;;;23.70;64.60;;;;;;2105991;28;20032;-68
2021/06/19 00:28:41;;;;;;;9.20;8.30;;;23.70;63.90;;;;;;2103683;28;20032;-69
2021/06/19 00:29:41;;;;;;;9.00;8.20;;;23.70;64.00;;;;;;2104712;28;20060;-69
2021/06/19 00:30:42;;;;;;;9.30;8.40;;;23.70;64.00;;;;;;2105097;28;20026;-68
2021/06/19 00:31:43;;;;;;;8.93;8.00;;;23.70;64.00;;;;;;2104948;28;20482;-69
2021/06/19 00:32:45;;;;;;;8.80;7.90;;;23.70;64.00;;;;;;2105078;28;20020;-69
2021/06/19 00:33:46;;;;;;;9.20;8.30;;;23.70;63.90;;;;;;2105804;28;20055;-69
2021/06/19 00:34:47;;;;;;;8.40;7.60;;;23.70;63.80;;;;;;2105737;28;20758;-69
2021/06/19 00:35:47;;;;;;;9.07;8.18;;;23.70;64.00;;;;;;2105693;28;20028;-69
2021/06/19 00:36:48;;;;;;;9.32;8.43;;;23.70;64.10;;;;;;2104838;28;20080;-70
2021/06/19 00:37:49;;;;;;;9.50;8.43;;;23.70;64.10;;;;;;2104733;28;20050;-69
2021/06/19 00:38:50;;;;;;;9.23;8.30;;;23.70;64.30;;;;;;2105140;28;20039;-69
2021/06/19 00:39:50;;;;;;;9.30;8.40;;;23.70;64.40;;;;;;2105016;28;20055;-68
2021/06/19 00:40:51;;;;;;;9.00;8.10;;;23.70;64.50;;;;;;2104357;28;20356;-69
2021/06/19 00:41:52;;;;;;;9.30;8.32;;;23.70;64.60;;;;;;2105938;28;20024;-69
2021/06/19 00:42:58;;;;;;;9.50;8.50;;;23.70;64.60;;;;;;2105768;28;20141;-69
2021/06/19 00:43:59;;;;;;;9.43;8.52;;;23.60;64.60;;;;;;2104908;28;20044;-68
2021/06/19 00:45:00;;;;;;;9.10;8.30;;;23.60;64.70;;;;;;2104863;28;20431;-69
2021/06/19 00:46:00;;;;;;;9.48;8.57;;;23.60;64.80;;;;;;2105803;28;20028;-69
2021/06/19 00:47:01;;;;;;;10.50;8.40;;;23.60;65.00;;;;;;2105723;28;20024;-69
2021/06/19 00:48:10;;;;;;;9.63;8.48;;;23.60;65.10;;;;;;2105549;28;20059;-69
2021/06/19 00:49:10;;;;;;;9.40;8.50;;;23.50;65.30;;;;;;2105122;28;20039;-69
2021/06/19 00:50:12;;;;;;;10.35;8.52;;;23.60;65.70;;;;;;2105257;28;20386;-68
2021/06/19 00:51:12;;;;;;;9.80;8.75;;;23.50;65.50;;;;;;2105076;28;20028;-69
2021/06/19 00:52:13;;;;;;;9.77;8.77;;;23.50;65.70;;;;;;2105103;28;20024;-68
2021/06/19 00:53:14;;;;;;;9.73;8.70;;;23.50;66.00;;;;;;2104931;28;20025;-68
2021/06/19 00:54:14;;;;;;;9.48;8.57;;;23.50;66.10;;;;;;2105607;28;20395;-70
2021/06/19 00:55:15;;;;;;;9.02;8.13;;;23.50;66.20;;;;;;2105410;28;20034;-69
2021/06/19 00:56:16;;;;;;;9.75;8.00;;;23.50;66.30;;;;;;2105915;28;20028;-68
2021/06/19 00:57:16;;;;;;;9.30;8.40;;;23.50;66.40;;;;;;2105287;28;20031;-69
2021/06/19 00:58:17;;;;;;;9.25;8.35;;;23.50;66.40;;;;;;2105253;28;20098;-68
2021/06/19 00:59:18;;;;;;;9.02;8.13;;;23.50;66.40;;;;;;2104314;28;20099;-69
2021/06/19 01:00:20;;;;;;;9.50;8.50;;;23.40;66.30;;;;;;2104203;28;20031;-69
2021/06/19 01:01:20;;;;;;;9.18;8.38;;;23.50;66.40;;;;;;2104559;28;20681;-68
2021/06/19 01:02:21;;;;;;;9.30;8.40;;;23.40;66.40;;;;;;2105541;28;20028;-69
2021/06/19 01:03:22;;;;;;;8.98;8.10;;;23.40;66.40;;;;;;2105562;28;20501;-70
2021/06/19 01:04:22;;;;;;;9.63;8.70;;;23.40;66.50;;;;;;2105269;28;20028;-69
2021/06/19 01:05:25;;;;;;;9.40;8.38;;;23.40;66.50;;;;;;2105462;28;20028;-69
2021/06/19 01:06:26;;;;;;;9.20;8.25;;;23.40;66.60;;;;;;2105718;28;20028;-71
2021/06/19 01:07:27;;;;;;;9.40;8.50;;;23.40;66.40;;;;;;2105681;28;20035;-70
2021/06/19 01:08:28;;;;;;;9.30;8.32;;;23.40;66.50;;;;;;2104604;28;20016;-70
2021/06/19 01:09:29;;;;;;;9.00;8.20;;;23.40;66.70;;;;;;2104835;28;20035;-70
2021/06/19 01:10:29;;;;;;;9.50;8.52;;;23.40;66.80;;;;;;2106072;28;20161;-69
2021/06/19 01:11:30;;;;;;;9.23;8.38;;;23.40;66.80;;;;;;2106918;28;20111;-69
2021/06/19 01:12:32;;;;;;;9.77;8.80;;;23.40;66.90;;;;;;2105691;28;20028;-69
2021/06/19 01:13:35;;;;;;;10.32;8.73;;;23.40;68.70;;;;;;2104828;28;20115;-68
2021/06/19 01:14:35;;;;;;;11.25;9.35;;;23.40;71.90;;;;;;2105385;28;20020;-69
2021/06/19 01:15:36;;;;;;;10.65;9.07;;;23.30;73.60;;;;;;2105330;28;20069;-69
2021/06/19 01:16:37;;;;;;;10.60;9.40;;;23.30;73.50;;;;;;2105014;28;20035;-68
2021/06/19 01:17:37;;;;;;;9.48;8.57;;;23.30;73.40;;;;;;2104441;28;20446;-68
2021/06/19 01:18:38;;;;;;;10.25;8.85;;;23.30;73.20;;;;;;2104972;28;20031;-69
2021/06/19 01:19:38;;;;;;;9.68;8.75;;;23.30;73.00;;;;;;2105420;28;20157;-68
2021/06/19 01:20:39;;;;;;;9.60;8.70;;;23.20;72.50;;;;;;2104872;28;20089;-68
2021/06/19 01:21:40;;;;;;;9.65;8.75;;;23.20;72.50;;;;;;2105544;28;20586;-68
2021/06/19 01:22:43;;;;;;;9.55;8.65;;;23.20;73.10;;;;;;2105450;28;20028;-69
2021/06/19 01:23:45;;;;;;;9.65;8.75;;;23.20;73.20;;;;;;2105221;28;20564;-69
2021/06/19 01:24:45;;;;;;;9.45;8.65;;;23.10;73.20;;;;;;2105172;28;20036;-69
2021/06/19 01:25:46;;;;;;;9.32;8.50;;;23.10;73.10;;;;;;2105004;28;20028;-68
2021/06/19 01:26:47;;;;;;;9.07;8.25;;;23.10;73.10;;;;;;2104640;28;20028;-68
2021/06/19 01:27:50;;;;;;;9.40;8.32;;;23.10;73.20;;;;;;2104871;28;20032;-68
2021/06/19 01:28:52;;;;;;;9.32;8.43;;;23.10;73.20;;;;;;2103150;28;20028;-68
2021/06/19 01:29:53;;;;;;;10.75;9.05;;;23.00;73.10;;;;;;2104717;28;20107;-69
2021/06/19 01:30:53;;;;;;;9.68;8.68;;;23.00;73.00;;;;;;2104854;28;20109;-68
2021/06/19 01:31:54;;;;;;;9.82;8.57;;;23.00;73.60;;;;;;2105563;28;20028;-69
2021/06/19 01:32:55;;;;;;;9.10;8.30;;;23.00;72.70;;;;;;2105452;28;20024;-69
2021/06/19 01:33:56;;;;;;;9.60;8.52;;;23.00;72.50;;;;;;2104676;28;20056;-69
2021/06/19 01:34:57;;;;;;;9.13;8.27;;;23.00;72.20;;;;;;2104534;28;20039;-69
2021/06/19 01:35:57;;;;;;;9.25;8.43;;;23.00;72.10;;;;;;2104941;28;20467;-69
2021/06/19 01:36:58;;;;;;;9.13;8.07;;;23.00;71.90;;;;;;2105085;28;20024;-68
2021/06/19 01:37:59;;;;;;;9.02;8.10;;;23.00;71.60;;;;;;2105344;28;20039;-69
2021/06/19 01:38:59;;;;;;;8.75;7.95;;;23.00;71.40;;;;;;2105350;28;20467;-69
2021/06/19 01:40:08;;;;;;;8.77;7.85;;;22.90;71.30;;;;;;2104802;28;20081;-68
2021/06/19 01:41:22;;;;;;;8.80;7.97;;;23.00;71.30;;;;;;2105388;28;20047;-68
2021/06/19 01:42:22;;;;;;;8.55;7.85;;;23.00;71.20;;;;;;2104658;28;20030;-69
2021/06/19 01:43:23;;;;;;;8.52;7.72;;;23.00;70.80;;;;;;2104588;28;20032;-68
2021/06/19 01:44:23;;;;;;;8.30;7.53;;;23.00;70.50;;;;;;2104280;28;20121;-69
2021/06/19 01:45:26;;;;;;;8.88;8.07;;;23.00;70.40;;;;;;2088029;28;20087;-69
2021/06/19 01:46:28;;;;;;;8.65;7.85;;;23.00;70.20;;;;;;2096856;28;20031;-69
2021/06/19 01:47:29;;;;;;;9.65;8.52;;;23.00;70.20;;;;;;2105497;28;20024;-69
2021/06/19 01:48:30;;;;;;;9.73;8.18;;;23.00;70.30;;;;;;2105091;28;20082;-68
2021/06/19 01:49:34;;;;;;;9.88;8.73;;;23.00;71.10;;;;;;2104714;28;20078;-69
2021/06/19 01:50:36;;;;;;;9.25;8.40;;;23.00;73.60;;;;;;2104428;28;20024;-68
2021/06/19 01:51:37;;;;;;;9.05;8.20;;;23.00;74.60;;;;;;2105415;28;20372;-69
2021/06/19 01:52:39;;;;;;;9.00;8.25;;;23.00;75.00;;;;;;2105124;28;20438;-69
2021/06/19 01:53:43;;;;;;;9.52;8.63;;;23.00;75.10;;;;;;2105423;28;20016;-69
2021/06/19 01:54:44;;;;;;;9.13;8.27;;;22.90;74.40;;;;;;2104921;28;20046;-69
2021/06/19 01:55:45;;;;;;;9.30;8.50;;;22.90;74.10;;;;;;2105418;28;20032;-69
2021/06/19 01:56:46;;;;;;;9.05;8.25;;;22.90;73.70;;;;;;2104585;28;20182;-69
2021/06/19 01:57:50;;;;;;;8.75;7.95;;;22.90;73.50;;;;;;2105088;28;20044;-68
2021/06/19 01:58:52;;;;;;;8.80;8.00;;;22.90;73.20;;;;;;2104043;28;20491;-68
2021/06/19 02:00:01;;;;;;;9.82;7.88;;;22.90;72.90;;;;;;2105727;28;20445;-69
2021/06/19 02:01:04;;;;;;;9.27;8.30;;;22.80;72.50;;;;;;2104828;28;20652;-69
2021/06/19 02:02:05;;;;;;;9.13;8.23;;;22.80;72.40;;;;;;2105146;28;20059;-69
2021/06/19 02:03:09;;;;;;;8.48;7.75;;;22.80;72.80;;;;;;2105200;28;20051;-69
2021/06/19 02:04:09;;;;;;;8.80;7.90;;;22.80;72.10;;;;;;2105428;28;20115;-69
2021/06/19 02:05:12;;;;;;;9.27;8.30;;;22.80;72.00;;;;;;2105486;28;20425;-68
2021/06/19 02:06:13;;;;;;;9.23;8.18;;;22.80;71.90;;;;;;2105428;28;20024;-69
2021/06/19 02:07:13;;;;;;;9.25;8.30;;;22.80;71.70;;;;;;2105708;28;20467;-69
2021/06/19 02:08:14;;;;;;;8.20;7.45;;;22.80;71.40;;;;;;2105455;28;20031;-69
2021/06/19 02:09:15;;;;;;;8.60;7.80;;;22.80;71.30;;;;;;2105103;28;20028;-70
2021/06/19 02:10:17;;;;;;;8.60;7.82;;;22.80;71.30;;;;;;2104985;28;20032;-69
2021/06/19 02:11:17;;;;;;;9.30;8.30;;;22.80;72.30;;;;;;2105306;28;20028;-69
2021/06/19 02:12:18;;;;;;;8.70;7.90;;;22.80;74.80;;;;;;2105326;28;20024;-69
2021/06/19 02:13:19;;;;;;;9.20;8.20;;;22.80;74.80;;;;;;2105200;28;20048;-68
2021/06/19 02:14:19;;;;;;;9.32;8.43;;;22.80;74.40;;;;;;2104546;28;20051;-69
2021/06/19 02:15:21;;;;;;;9.15;8.30;;;22.80;74.20;;;;;;2104666;28;20031;-69
2021/06/19 02:16:21;;;;;;;9.02;8.13;;;22.80;73.50;;;;;;2104943;28;20028;-68
2021/06/19 02:17:22;;;;;;;8.63;7.82;;;22.70;73.00;;;;;;2105117;28;20030;-69
2021/06/19 02:18:24;;;;;;;8.30;7.47;;;22.70;72.60;;;;;;2104586;28;20024;-68
2021/06/19 02:19:25;;;;;;;8.98;7.70;;;22.70;72.20;;;;;;2105116;28;20135;-69
2021/06/19 02:20:26;;;;;;;8.88;7.97;;;22.70;71.90;;;;;;2104758;28;20035;-68
2021/06/19 02:21:27;;;;;;;9.38;8.40;;;22.70;71.60;;;;;;2105289;28;20475;-67
2021/06/19 02:22:27;;;;;;;8.10;7.30;;;22.60;71.40;;;;;;2105238;28;20081;-68
2021/06/19 02:23:28;;;;;;;8.05;7.30;;;22.60;71.30;;;;;;2104518;28;20081;-68
2021/06/19 02:24:29;;;;;;;8.20;7.40;;;22.60;71.00;;;;;;2104408;28;20035;-68
2021/06/19 02:25:32;;;;;;;8.18;7.38;;;22.60;70.90;;;;;;2104394;28;20032;-69
2021/06/19 02:26:33;;;;;;;8.27;7.55;;;22.60;70.70;;;;;;2104520;28;20012;-68
2021/06/19 02:27:33;;;;;;;8.13;7.43;;;22.60;70.60;;;;;;2104602;28;20082;-67
2021/06/19 02:28:34;;;;;;;8.50;7.70;;;22.60;70.40;;;;;;2103632;28;20028;-68
2021/06/19 02:29:34;;;;;;;8.60;7.80;;;22.60;70.20;;;;;;2104074;28;20048;-68
2021/06/19 02:30:42;;;;;;;8.50;7.60;;;22.60;70.10;;;;;;2103775;28;20030;-68
2021/06/19 02:31:43;;;;;;;8.98;7.97;;;22.60;70.20;;;;;;2105175;28;20124;-68
2021/06/19 02:32:43;;;;;;;8.70;7.90;;;22.60;70.20;;;;;;2104757;28;20502;-68
2021/06/19 02:33:46;;;;;;;8.63;7.80;;;22.60;70.10;;;;;;2105175;28;20020;-68
2021/06/19 02:34:47;;;;;;;8.20;7.50;;;22.60;69.90;;;;;;2105179;28;20027;-68
2021/06/19 02:35:49;;;;;;;8.90;8.10;;;22.60;69.80;;;;;;2105233;28;20028;-68
2021/06/19 02:36:49;;;;;;;8.13;7.38;;;22.60;69.80;;;;;;2105246;28;20050;-68
2021/06/19 02:37:50;;;;;;;7.78;7.05;;;22.60;69.90;;;;;;2104917;28;20115;-68
2021/06/19 02:38:51;;;;;;;8.15;7.43;;;22.60;69.90;;;;;;2104685;28;20028;-68
2021/06/19 02:39:51;;;;;;;8.48;7.40;;;22.60;69.80;;;;;;2105126;28;20575;-68
2021/06/19 02:40:52;;;;;;;8.00;7.30;;;22.60;69.80;;;;;;2103771;28;20426;-68
2021/06/19 02:41:53;;;;;;;7.95;7.22;;;22.60;69.90;;;;;;2104890;28;20098;-68
2021/06/19 02:42:54;;;;;;;8.25;7.45;;;22.60;69.90;;;;;;2105640;28;20407;-68
2021/06/19 02:43:54;;;;;;;8.90;7.50;;;22.60;69.80;;;;;;2105539;28;20463;-68
2021/06/19 02:44:55;;;;;;;8.10;7.30;;;22.60;69.70;;;;;;2105141;28;20032;-68
2021/06/19 02:45:59;;;;;;;8.20;7.40;;;22.60;69.80;;;;;;2105566;28;20051;-68
2021/06/19 02:46:59;;;;;;;8.13;7.30;;;22.60;70.10;;;;;;2105654;28;20028;-69
2021/06/19 02:48:00;;;;;;;8.10;7.28;;;22.60;70.10;;;;;;2105478;28;20078;-68
2021/06/19 02:49:01;;;;;;;8.55;7.55;;;22.50;69.90;;;;;;2106231;28;20052;-68
2021/06/19 02:50:02;;;;;;;8.07;7.38;;;22.50;69.80;;;;;;2106372;28;20149;-68
2021/06/19 02:51:03;;;;;;;7.90;7.20;;;22.50;69.90;;;;;;2105922;28;20165;-68
2021/06/19 02:52:04;;;;;;;8.15;7.32;;;22.50;69.80;;;;;;2105866;28;20033;-67
2021/06/19 02:53:05;;;;;;;7.93;7.18;;;22.50;69.60;;;;;;2106941;28;20024;-68
2021/06/19 02:54:06;;;;;;;7.95;7.20;;;22.50;69.50;;;;;;2105827;28;20144;-68
2021/06/19 02:55:08;;;;;;;7.57;6.88;;;22.50;69.30;;;;;;2105780;28;20032;-70
2021/06/19 02:56:09;;;;;;;7.70;7.05;;;22.50;69.30;;;;;;2106522;28;20087;-68
2021/06/19 02:57:10;;;;;;;8.00;7.20;;;22.50;69.30;;;;;;2106746;28;20089;-68
2021/06/19 02:58:15;;;;;;;7.78;7.07;;;22.50;69.40;;;;;;2106481;28;20666;-68
2021/06/19 02:59:16;;;;;;;8.02;7.28;;;22.50;69.30;;;;;;2105700;28;20035;-68
2021/06/19 03:00:19;;;;;;;7.50;6.90;;;22.50;69.20;;;;;;2106070;28;20060;-68
2021/06/19 03:01:19;;;;;;;7.82;7.13;;;22.50;69.20;;;;;;2106503;28;20020;-68
2021/06/19 03:02:20;;;;;;;7.80;7.10;;;22.50;69.10;;;;;;2106690;28;20460;-68
2021/06/19 03:03:20;;;;;;;7.80;7.10;;;22.50;69.00;;;;;;2106647;28;20531;-68
2021/06/19 03:04:21;;;;;;;7.93;7.20;;;22.50;69.00;;;;;;2106086;28;20024;-68
2021/06/19 03:05:25;;;;;;;7.50;6.80;;;22.50;69.00;;;;;;2105787;28;20487;-68
2021/06/19 03:06:26;;;;;;;7.32;6.72;;;22.60;69.00;;;;;;2106584;28;20024;-68
2021/06/19 03:07:27;;;;;;;7.55;6.85;;;22.50;68.80;;;;;;2106486;28;20032;-68
2021/06/19 03:08:28;;;;;;;7.72;7.03;;;22.60;68.90;;;;;;2106214;28;20149;-68
2021/06/19 03:09:29;;;;;;;7.75;7.05;;;22.60;68.90;;;;;;2105828;28;20044;-69
2021/06/19 03:10:31;;;;;;;7.65;6.90;;;22.60;68.70;;;;;;2105463;28;20038;-69
2021/06/19 03:11:32;;;;;;;8.25;6.97;;;22.60;68.60;;;;;;2106487;28;20024;-69
2021/06/19 03:12:33;;;;;;;7.55;6.75;;;22.60;68.60;;;;;;2105950;28;20097;-69
2021/06/19 03:13:33;;;;;;;7.38;6.68;;;22.60;68.50;;;;;;2105812;28;20103;-69
2021/06/19 03:14:34;;;;;;;7.72;7.03;;;22.60;68.50;;;;;;2105668;28;20027;-69
2021/06/19 03:15:35;;;;;;;7.90;7.10;;;22.60;68.60;;;;;;2105951;28;20176;-69
2021/06/19 03:16:35;;;;;;;8.10;6.63;;;22.60;68.50;;;;;;2106518;28;20024;-69
2021/06/19 03:17:37;;;;;;;7.72;6.97;;;22.60;68.40;;;;;;2106676;28;20031;-69
2021/06/19 03:18:37;;;;;;;7.47;6.78;;;22.60;68.40;;;;;;2106549;28;20024;-69
2021/06/19 03:19:39;;;;;;;7.90;7.20;;;22.60;68.40;;;;;;2107254;28;20020;-69
2021/06/19 03:20:39;;;;;;;8.20;7.10;;;22.60;68.30;;;;;;2106502;28;20040;-69
2021/06/19 03:21:42;;;;;;;7.93;6.95;;;22.60;68.30;;;;;;2107071;28;20467;-68
2021/06/19 03:23:03;;;;;;;7.95;7.15;;;22.70;68.50;;;;;;2106987;28;20179;-69
2021/06/19 03:24:04;;;;;;;7.70;6.90;;;22.70;68.40;;;;;;2107155;28;20852;-69
2021/06/19 03:25:05;;;;;;;7.80;7.10;;;22.70;68.40;;;;;;2105596;28;20419;-68
2021/06/19 03:26:06;;;;;;;7.80;7.10;;;22.70;68.20;;;;;;2105902;28;20063;-68
2021/06/19 03:27:11;;;;;;;7.45;6.68;;;22.70;68.30;;;;;;2105860;28;20024;-69
2021/06/19 03:28:13;;;;;;;7.75;7.05;;;22.70;68.20;;;;;;2105907;28;20024;-68
2021/06/19 03:29:14;;;;;;;7.32;6.72;;;22.70;68.10;;;;;;2105488;28;20020;-68
2021/06/19 03:30:17;;;;;;;7.20;6.60;;;22.70;68.10;;;;;;2106115;28;20023;-69
2021/06/19 03:31:17;;;;;;;8.20;7.00;;;22.70;68.00;;;;;;2106378;28;20099;-68
2021/06/19 03:32:18;;;;;;;8.07;7.28;;;22.80;68.00;;;;;;2106453;28;20024;-70
2021/06/19 03:33:19;;;;;;;8.63;7.82;;;22.80;68.00;;;;;;2106339;28;20429;-68
2021/06/19 03:34:21;;;;;;;10.02;7.68;;;22.80;67.90;;;;;;2106615;28;20078;-68
2021/06/19 03:35:22;;;;;;;11.20;7.63;;;22.80;67.40;;;;;;2106367;28;20250;-68
2021/06/19 03:36:23;;;;;;;9.63;7.68;;;22.80;67.80;;;;;;2105859;28;20027;-68
2021/06/19 03:37:23;;;;;;;8.90;7.35;;;22.80;67.80;;;;;;2105798;28;20039;-69
2021/06/19 03:38:24;;;;;;;8.40;7.47;;;22.90;67.70;;;;;;2105487;28;20411;-68
2021/06/19 03:39:26;;;;;;;8.38;7.43;;;22.90;67.60;;;;;;2105645;28;20111;-68
2021/06/19 03:40:28;;;;;;;7.63;7.03;;;22.90;67.50;;;;;;2104955;28;20125;-68
2021/06/19 03:41:29;;;;;;;7.90;7.10;;;22.90;67.60;;;;;;2105719;28;20075;-68
2021/06/19 03:42:29;;;;;;;9.35;7.30;;;22.90;67.50;;;;;;2106611;28;20481;-68
2021/06/19 03:43:30;;;;;;;9.50;7.00;;;22.90;67.50;;;;;;2106248;28;20020;-69
2021/06/19 03:44:31;;;;;;;8.18;7.38;;;22.90;67.30;;;;;;2106362;28;20067;-68
2021/06/19 03:45:36;;;;;;;7.95;7.10;;;23.00;67.30;;;;;;2106326;28;20028;-69
2021/06/19 03:46:39;;;;;;;8.30;7.25;;;23.00;67.20;;;;;;2106450;28;20548;-69
2021/06/19 03:47:41;;;;;;;7.78;7.07;;;23.00;67.20;;;;;;2106516;28;20031;-69
2021/06/19 03:48:42;;;;;;;8.73;6.85;;;23.00;67.10;;;;;;2105658;28;20031;-68
2021/06/19 03:49:42;;;;;;;7.82;7.07;;;23.00;67.20;;;;;;2105950;28;20501;-69
2021/06/19 03:50:43;;;;;;;8.07;7.28;;;23.00;67.00;;;;;;2105835;28;20024;-69
2021/06/19 03:51:45;;;;;;;11.07;7.55;;;23.10;66.80;;;;;;2105766;28;20071;-69
2021/06/19 03:52:46;;;;;;;9.57;7.40;;;23.10;66.70;;;;;;2106355;28;20024;-69
2021/06/19 03:53:47;;;;;;;8.60;7.30;;;23.10;66.70;;;;;;2107034;28;20372;-70
2021/06/19 03:54:48;;;;;;;8.82;7.20;;;23.10;66.70;;;;;;2106315;28;20042;-71
2021/06/19 03:55:48;;;;;;;8.40;7.38;;;23.10;66.60;;;;;;2106188;28;20032;-71
2021/06/19 03:56:49;;;;;;;7.75;6.95;;;23.20;66.70;;;;;;2105384;28;20495;-71
2021/06/19 03:57:50;;;;;;;7.85;7.13;;;23.20;66.60;;;;;;2105762;28;20055;-69
2021/06/19 03:58:51;;;;;;;8.93;7.30;;;23.20;66.40;;;;;;2104588;28;20532;-69
2021/06/19 03:59:52;;;;;;;9.45;7.43;;;23.20;66.30;;;;;;2105992;28;20107;-70
2021/06/19 04:00:53;;;;;;;8.18;7.35;;;23.20;66.20;;;;;;2104664;28;20046;-70
2021/06/19 04:01:53;;;;;;;8.35;7.55;;;23.20;66.00;;;;;;2105412;28;20032;-70
2021/06/19 04:02:54;;;;;;;8.75;7.60;;;23.30;65.80;;;;;;2105420;28;20024;-70
2021/06/19 04:03:55;;;;;;;8.55;7.60;;;23.50;65.20;;;;;;2105995;28;20024;-70
2021/06/19 04:04:55;;;;;;;8.35;7.15;;;23.70;64.30;;;;;;2105824;28;20481;-70
2021/06/19 04:05:56;;;;;;;7.50;6.70;;;24.00;63.50;;;;;;2105989;28;20020;-70
2021/06/19 04:06:56;;;;;;;7.85;6.97;;;24.30;62.20;;;;;;2105105;28;20553;-70
2021/06/19 04:07:57;;;;;;;8.18;6.97;;;24.60;60.90;;;;;;2105190;28;20035;-71
2021/06/19 04:08:58;;;;;;;8.10;7.07;;;24.90;59.80;;;;;;2105635;28;20103;-70
2021/06/19 04:09:59;;;;;;;7.55;6.75;;;25.30;59.00;;;;;;2105430;28;20081;-70
2021/06/19 04:10:59;;;;;;;7.68;6.88;;;25.60;58.20;;;;;;2105992;28;20016;-71
2021/06/19 04:12:00;;;;;;;7.28;6.50;;;25.90;57.10;;;;;;2106044;28;20839;-70
2021/06/19 04:13:01;;;;;;;7.65;6.75;;;26.20;56.40;;;;;;2106008;28;20032;-70
2021/06/19 04:14:01;;;;;;;7.35;6.63;;;26.50;55.80;;;;;;2106067;28;20035;-70
2021/06/19 04:15:03;;;;;;;8.45;6.35;;;26.80;55.20;;;;;;2106027;28;20028;-70
2021/06/19 04:16:04;;;;;;;6.95;6.35;;;27.10;54.60;;;;;;2105348;28;20119;-70
2021/06/19 04:17:08;;;;;;;6.90;6.30;;;27.30;54.00;;;;;;2105474;28;20088;-70
2021/06/19 04:18:09;;;;;;;7.15;6.50;;;27.50;53.30;;;;;;2105312;28;20388;-70
2021/06/19 04:19:09;;;;;;;7.45;6.68;;;27.70;52.90;;;;;;2105681;28;20035;-70
2021/06/19 04:20:11;;;;;;;7.00;6.40;;;27.90;52.40;;;;;;2105810;28;20097;-70
2021/06/19 04:21:12;;;;;;;7.25;6.10;;;28.00;51.70;;;;;;2106292;28;20049;-70
2021/06/19 04:22:13;;;;;;;7.68;6.55;;;28.10;51.50;;;;;;2106477;28;20046;-70
2021/06/19 04:23:14;;;;;;;7.65;6.25;;;28.10;51.40;;;;;;2106563;28;20501;-69
2021/06/19 04:24:15;;;;;;;7.28;6.50;;;28.20;51.00;;;;;;2106577;28;20032;-71
2021/06/19 04:25:18;;;;;;;7.65;6.60;;;28.20;51.00;;;;;;2106276;28;20032;-71
2021/06/19 04:26:20;;;;;;;7.35;6.65;;;28.10;51.00;;;;;;2106126;28;20042;-71
2021/06/19 04:27:21;;;;;;;7.10;6.45;;;28.30;50.90;;;;;;2097386;28;20017;-69
2021/06/19 04:28:22;;;;;;;6.72;6.13;;;28.50;50.60;;;;;;2105158;28;20031;-71
2021/06/19 04:29:22;;;;;;;8.02;6.28;;;28.70;50.20;;;;;;2097651;28;20131;-70
2021/06/19 04:30:25;;;;;;;7.05;6.40;;;28.70;49.40;;;;;;2105049;28;20024;-71
2021/06/19 04:31:26;;;;;;;6.70;6.10;;;28.70;49.30;;;;;;2105146;28;20031;-70
2021/06/19 04:32:27;;;;;;;7.13;6.43;;;28.90;49.30;;;;;;2105274;28;20050;-70
2021/06/19 04:33:28;;;;;;;8.73;6.03;;;29.00;48.90;;;;;;2105303;28;20024;-70
2021/06/19 04:34:28;;;;;;;7.07;6.32;;;28.90;48.70;;;;;;2105765;28;20028;-69
2021/06/19 04:35:29;;;;;;;7.50;6.22;;;29.00;48.80;;;;;;2105948;28;20023;-70
2021/06/19 04:36:30;;;;;;;12.07;6.55;;;29.20;48.70;;;;;;2105888;28;20054;-70
2021/06/19 04:37:30;;;;;;;7.95;6.30;;;29.30;48.30;;;;;;2105945;28;20784;-72
2021/06/19 04:38:31;;;;;;;8.63;6.00;;;29.20;48.20;;;;;;2105912;28;20031;-71
2021/06/19 04:39:32;;;;;;;9.07;6.20;;;29.20;48.40;;;;;;2105557;28;20032;-69
2021/06/19 04:40:38;;;;;;;8.55;6.40;;;29.30;47.90;;;;;;2105007;28;20020;-69
2021/06/19 04:42:00;;;;;;;7.80;6.10;;;29.20;48.00;;;;;;2106069;28;20140;-68
2021/06/19 04:43:06;;;;;;;7.43;6.43;;;29.20;48.00;;;;;;2105311;28;20408;-69
2021/06/19 04:44:19;;;;;;;7.43;6.10;;;29.40;47.80;;;;;;2105377;28;20028;-70
2021/06/19 04:45:20;;;;;;;7.00;6.30;;;29.50;47.30;;;;;;2105741;28;20597;-69
2021/06/19 04:46:20;;;;;;;8.40;6.35;;;29.60;47.20;;;;;;2105847;28;20106;-69
2021/06/19 04:47:24;;;;;;;6.93;6.15;;;29.70;47.10;;;;;;2105685;28;20031;-70
2021/06/19 04:48:25;;;;;;;8.52;6.40;;;29.80;47.00;;;;;;2105478;28;20111;-70
2021/06/19 04:49:25;;;;;;;8.15;6.32;;;29.90;47.00;;;;;;2105052;28;20024;-69
2021/06/19 04:50:26;;;;;;;8.13;6.50;;;29.70;46.80;;;;;;2104559;28;20480;-70
2021/06/19 04:51:27;;;;;;;7.03;6.40;;;29.70;46.90;;;;;;2105782;28;20042;-70
2021/06/19 04:52:32;;;;;;;7.07;5.80;;;29.70;47.00;;;;;;2105776;28;20031;-69
2021/06/19 04:53:32;;;;;;;7.25;5.80;;;30.00;46.80;;;;;;2105837;28;20032;-69
2021/06/19 04:54:37;;;;;;;6.63;5.97;;;30.10;46.60;;;;;;2105780;28;20552;-70
2021/06/19 04:55:38;;;;;;;6.20;5.70;;;30.20;46.30;;;;;;2105630;28;20035;-70
2021/06/19 04:56:42;;;;;;;7.07;6.22;;;30.40;46.20;;;;;;2105843;28;20028;-69
2021/06/19 04:57:44;;;;;;;10.48;5.80;;;30.40;46.00;;;;;;2105553;28;20059;-69
2021/06/19 04:58:45;;;;;;;6.68;6.00;;;30.30;46.00;;;;;;2104273;28;20029;-69
2021/06/19 04:59:46;;;;;;;6.45;5.90;;;30.40;45.80;;;;;;2104737;28;20020;-68
2021/06/19 05:00:46;;;;;;;6.82;5.80;;;30.50;45.70;;;;;;2104320;28;20032;-69
2021/06/19 05:01:47;;;;;;;9.27;5.80;;;30.70;45.50;;;;;;2105653;28;20081;-69
2021/06/19 05:02:48;;;;;;;10.85;6.20;;;30.80;45.40;;;;;;2105549;28;20116;-69
2021/06/19 05:03:48;;;;;;;7.57;6.22;;;30.90;45.30;;;;;;2105630;28;20035;-69
2021/06/19 05:04:49;;;;;;;7.93;5.68;;;30.90;45.10;;;;;;2105576;28;20103;-69
2021/06/19 05:05:52;;;;;;;7.03;5.80;;;30.80;45.00;;;;;;2105628;28;20545;-69
2021/06/19 05:06:53;;;;;;;6.10;5.60;;;30.80;44.90;;;;;;2105589;28;20115;-69
2021/06/19 05:07:53;;;;;;;6.75;5.82;;;31.00;44.80;;;;;;2105415;28;20024;-69
2021/06/19 05:08:55;;;;;;;6.55;5.90;;;31.10;45.20;;;;;;2105340;28;20469;-68
2021/06/19 05:09:55;;;;;;;8.27;5.75;;;31.20;44.40;;;;;;2105358;28;20004;-69
2021/06/19 05:10:57;;;;;;;6.15;5.63;;;31.20;44.20;;;;;;2104631;28;20028;-69
2021/06/19 05:11:58;;;;;;;6.35;5.70;;;31.30;44.30;;;;;;2105442;28;20503;-69
2021/06/19 05:12:58;;;;;;;7.97;6.10;;;31.40;44.10;;;;;;2104767;28;20066;-68
2021/06/19 05:13:59;;;;;;;9.65;6.60;;;31.50;44.00;;;;;;2105029;28;20024;-69
2021/06/19 05:15:01;;;;;;;9.07;6.60;;;31.60;43.70;;;;;;2104941;28;20086;-68
2021/06/19 05:16:02;;;;;;;8.68;6.30;;;31.60;43.60;;;;;;2104971;28;20074;-68
2021/06/19 05:17:03;;;;;;;9.13;6.40;;;31.40;43.90;;;;;;2104895;28;20036;-69
2021/06/19 05:18:04;;;;;;;9.48;6.65;;;31.40;44.10;;;;;;2104696;28;20035;-69
2021/06/19 05:19:04;;;;;;;9.45;5.95;;;31.40;44.20;;;;;;2105517;28;20028;-68